ADDS METAR Data INFO
IDs: Format: Raw Decoded Include TAF

Data at: 2159 UTC 24 Feb 2018

PAFE 242156Z AUTO 11011G18KT 4SM -SN BR FEW014 BKN019 OVC029 01/M01 A2942 RMK AO2 SLP973 P0001 T00061006 FZRANO
PAFE 242152Z AUTO 11013G19KT 3SM -SN BR SCT014 BKN019 OVC031 01/M01 A2942 RMK AO2 P0001 FZRANO
PAFE 242139Z AUTO 11015G22KT 3SM -SN BR BKN014 BKN021 OVC029 01/M01 A2943 RMK AO2 PRESFR P0001 FZRANO
PAFE 242056Z AUTO 10012KT 1 1/4SM -SN BR OVC014 01/M01 A2948 RMK AO2 PRESFR SLP994 P0002 60002 T00061006 58074 FZRANO
PAFE 242044Z AUTO 10011G17KT 1 1/4SM -SN BR OVC014 00/M01 A2949 RMK AO2 PRESFR P0001 FZRANO
PAFE 242029Z AUTO 09012G18KT 1SM -SN BR OVC012 00/M01 A2951 RMK AO2 P0001 FZRANO
PAFE 242007Z AUTO 10012G17KT 1SM -SN BR BKN009 OVC014 00/M01 A2954 RMK AO2 CIG 007V011 PRESFR P0001 FZRANO
PAFE 241956Z AUTO 09010KT 3/4SM -SN BR BKN009 OVC020 00/M01 A2956 RMK AO2 CIG 007V014 PRESFR SLP020 P0000 T00001011 FZRANO
PAFE 241940Z AUTO 10011G19KT 1SM -SN BR SCT010 SCT015 OVC020 00/M01 A2958 RMK AO2 P0000 FZRANO
PAFE 241930Z AUTO 09013G17KT 2SM -SN BR SCT012 OVC020 00/M01 A2959 RMK AO2 PRESFR P0000 FZRANO
PAFE 241856Z AUTO 10011KT 1SM -SN BR OVC012 M01/M02 A2964 RMK AO2 SLP049 P0000 T10061017 FZRANO
PAFE 241821Z AUTO 10008KT 1 3/4SM -SN BR BKN019 OVC024 M01/M02 A2967 RMK AO2 P0000 FZRANO
PAFE 241807Z AUTO 09007G15KT 3SM -SN BR FEW014 BKN019 OVC026 M01/M02 A2969 RMK AO2 P0000 FZRANO
PAFE 241756Z AUTO 10008KT 1 1/2SM -SN BR SCT021 BKN025 OVC042 M01/M02 A2970 RMK AO2 PRESFR SLP069 P0000 60000 T10111022 11006 21033 58048 FZRANO
PAFE 241748Z AUTO 10008KT 2 1/2SM -SN BR SCT021 BKN029 OVC046 M01/M02 A2971 RMK AO2 P0000 FZRANO
PAFE 241656Z AUTO 10010G15KT 5SM -SN BR FEW031 BKN038 OVC048 M01/M03 A2974 RMK AO2 SLP084 P0000 T10111028 FZRANO
PAFE 241634Z AUTO 10007KT 3SM -SN BR BKN029 OVC036 M01/M03 A2976 RMK AO2 P0000 FZRANO
PAFE 241456Z AUTO 09005KT 10SM OVC050 M01/M04 A2984 RMK AO2 SLP118 T10111039 58030 FZRANO
PAFE 241256Z AUTO 06005KT 10SM CLR M03/M04 A2991 RMK AO2 SLP139 T10281039 FZRANO
PAFE 241156Z AUTO 06005KT 10SM CLR M03/M04 A2993 RMK AO2 SLP147 T10331039 10000 21033 58003 FZRANO
PAFE 240956Z AUTO 04005KT 10SM CLR M02/M04 A2995 RMK AO2 SLP154 T10221044 FZRANO
PAFE 240856Z AUTO 34003KT 10SM CLR M01/M04 A2994 RMK AO2 SLP151 T10061044 400391017 53020 FZRANO
PAFE 240556Z AUTO 00000KT 10SM CLR M01/M03 A2988 RMK AO2 SLP132 60000 T10111033 10033 21011 53031 FZRANO
PAFE 240456Z AUTO VRB03KT 10SM CLR M01/M03 A2985 RMK AO2 SLP120 T10111028 FZRANO
PAFE 232356Z AUTO 29007KT 10SM FEW027 BKN039 OVC046 03/00 A2970 RMK AO2 RAB2258E54 SLP070 P0000 60000 T00330000 10039 20028 53023
PAFE 232056Z AUTO 26011G19KT 10SM -RA BKN019 OVC026 03/01 A2964 RMK AO2 RAB00 SLP047 P0000 60000 T00330011 53009
PAFE 231856Z AUTO 15006KT 10SM FEW025 BKN060 OVC070 03/02 A2961 RMK AO2 SLP038 T00330017
PAFE 231848Z AUTO 15006KT 10SM FEW025 BKN049 OVC070 03/02 A2961 RMK AO2
PAFE 231741Z AUTO 12007KT 10SM BKN024 BKN041 OVC060 02/01 A2961 RMK AO2 FZRANO
PAFE 231656Z AUTO 12007KT 10SM SCT027 SCT033 OVC060 02/01 A2961 RMK AO2 RAE34 SLP038 P0000 T00220011 FZRANO
PAFE 231556Z AUTO 11008KT 10SM -RA SCT008 BKN024 OVC042 02/01 A2961 RMK AO2 RAE1457B17 SLP039 P0000 T00220011 FZRANO
PAFE 231327Z AUTO 11008G14KT 10SM -RA BKN022 OVC047 02/01 A2968 RMK AO2 RAB07UPB16E20 P0000 FZRANO
PAFE 231256Z AUTO 10007KT 10SM FEW023 OVC048 02/01 A2970 RMK AO2 SLP070 T00170006 FZRANO
PAFE 231156Z AUTO 12007KT 10SM BKN037 BKN046 02/01 A2974 RMK AO2 SLP083 60006 70010 T00220006 10028 20011 58012 FZRANO
PAFE 231056Z AUTO 13009KT 10SM SCT007 BKN038 03/02 A2976 RMK AO2 RAE26 SLP089 P0000 T00280017
PAFE 231052Z AUTO 13010KT 10SM SCT007 BKN040 03/02 A2976 RMK AO2 RAE26 P0000